createdAt,value
2017-02-12T00:00:45.489Z,96.72
2017-02-12T00:01:55.756Z,96.44
2017-02-12T00:03:06.418Z,96.72
2017-02-12T00:04:17.077Z,95.96
2017-02-12T00:05:27.751Z,97.09
2017-02-12T00:06:38.412Z,97.85
2017-02-12T00:07:49.074Z,98.22
2017-02-12T00:08:59.739Z,98.6
2017-02-12T00:10:10.402Z,98.6
2017-02-12T00:11:21.064Z,98.65
2017-02-12T00:12:31.371Z,98.46
2017-02-12T00:13:41.638Z,98.83
2017-02-12T00:14:52.298Z,98.74
2017-02-12T00:16:02.960Z,99.02
2017-02-12T00:17:13.625Z,98.93
2017-02-12T00:18:24.288Z,98.74
2017-02-12T00:19:34.956Z,99.31
2017-02-12T00:20:45.613Z,98.93
2017-02-12T00:21:56.273Z,98.65
2017-02-12T00:23:06.935Z,98.08
2017-02-12T00:24:17.599Z,98.55
2017-02-12T00:25:28.259Z,98.46
2017-02-12T00:26:38.919Z,98.46
2017-02-12T00:27:49.580Z,98.74
2017-02-12T00:29:00.244Z,98.46
2017-02-12T00:30:10.918Z,98.46
2017-02-12T00:31:21.190Z,98.08
2017-02-12T00:32:31.851Z,97.05
2017-02-12T00:33:42.509Z,96.39
2017-02-12T00:34:53.176Z,96.95
2017-02-12T00:36:03.837Z,97.42
2017-02-12T00:37:14.098Z,98.08
2017-02-12T00:38:24.760Z,98.65
2017-02-12T00:39:35.437Z,97.89
2017-02-12T00:40:46.123Z,97
2017-02-12T00:41:56.785Z,97.09
2017-02-12T00:43:07.496Z,97.75
2017-02-12T00:44:17.363Z,98.79
2017-02-12T00:45:28.064Z,99.07
2017-02-12T00:46:38.723Z,99.02
2017-02-12T00:47:49.386Z,99.21
2017-02-12T00:49:00.047Z,98.83
2017-02-12T00:50:10.312Z,98.74
2017-02-12T00:51:20.976Z,98.27
2017-02-12T00:52:31.633Z,98.46
2017-02-12T00:53:41.893Z,97.66
2017-02-12T00:54:52.554Z,97.66
2017-02-12T00:56:03.258Z,98.46
2017-02-12T00:57:13.527Z,98.97
2017-02-12T00:58:24.187Z,99.07
2017-02-12T00:59:34.848Z,99.31
2017-02-12T01:00:45.107Z,99.99
2017-02-12T01:01:55.769Z,99.99
2017-02-12T01:03:06.433Z,99.99
2017-02-12T01:04:16.321Z,99.99
2017-02-12T01:05:27.019Z,99.99
2017-02-12T01:06:37.730Z,99.78
2017-02-12T01:07:48.392Z,99.4
2017-02-12T01:08:59.054Z,99.5
2017-02-12T01:10:09.717Z,99.16
2017-02-12T01:11:20.023Z,99.35
2017-02-12T01:12:30.686Z,99.82
2017-02-12T01:13:41.356Z,99.73
2017-02-12T01:14:52.022Z,99.99
2017-02-12T01:16:02.683Z,99.99
2017-02-12T01:17:12.946Z,99.99
2017-02-12T01:18:23.210Z,99.99
2017-02-12T01:19:33.874Z,99.99
2017-02-12T01:20:44.544Z,99.91
2017-02-12T01:21:55.211Z,99.99
2017-02-12T01:23:05.874Z,99.99
2017-02-12T01:24:16.139Z,99.99
2017-02-12T01:25:26.868Z,99.99
2017-02-12T01:26:37.546Z,99.99
2017-02-12T01:27:48.209Z,99.99
2017-02-12T01:28:58.873Z,99.99
2017-02-12T01:30:09.536Z,99.99
2017-02-12T01:31:20.200Z,99.99
2017-02-12T01:32:30.860Z,99.99
2017-02-12T01:33:41.521Z,99.99
2017-02-12T01:34:52.190Z,99.99
2017-02-12T01:36:02.857Z,99.99
2017-02-12T01:37:13.517Z,99.99
2017-02-12T01:38:24.178Z,99.99
2017-02-12T01:39:34.840Z,99.99
2017-02-12T01:40:45.107Z,99.99
2017-02-12T01:41:55.768Z,99.99
2017-02-12T01:43:06.429Z,99.99
2017-02-12T01:44:16.727Z,99.99
2017-02-12T01:45:27.383Z,99.99
2017-02-12T01:46:38.052Z,99.99
2017-02-12T01:47:48.764Z,99.99
2017-02-12T01:48:59.422Z,99.99
2017-02-12T01:50:09.286Z,99.99
2017-02-12T01:51:19.553Z,99.99
2017-02-12T01:52:30.210Z,99.99
2017-02-12T01:53:40.470Z,99.99
2017-02-12T01:54:51.138Z,99.99
2017-02-12T01:56:01.804Z,99.99
2017-02-12T01:57:12.067Z,99.99
2017-02-12T01:58:22.728Z,99.99
2017-02-12T01:59:33.391Z,99.99
2017-02-12T02:00:44.054Z,99.99
2017-02-12T02:01:54.720Z,99.99
2017-02-12T02:03:05.380Z,99.99
2017-02-12T02:04:16.046Z,99.99
2017-02-12T02:05:26.707Z,99.99
2017-02-12T02:06:37.373Z,99.99
2017-02-12T02:07:48.043Z,99.99
2017-02-12T02:08:58.707Z,99.99
2017-02-12T02:10:09.365Z,99.99
2017-02-12T02:11:19.238Z,99.99
2017-02-12T02:12:29.897Z,99.99
2017-02-12T02:13:40.565Z,99.99
2017-02-12T02:14:51.259Z,99.99
2017-02-12T02:16:01.922Z,99.97
2017-02-12T02:17:12.589Z,99.99
2017-02-12T02:18:23.251Z,99.99
2017-02-12T02:19:33.919Z,99.87
2017-02-12T02:20:44.579Z,99.78
2017-02-12T02:21:55.241Z,99.68
2017-02-12T02:23:05.905Z,99.68
2017-02-12T02:24:16.180Z,99.21
2017-02-12T02:25:26.846Z,99.4
2017-02-12T02:26:37.513Z,99.4
2017-02-12T02:27:48.184Z,99.31
2017-02-12T02:28:58.848Z,99.4
2017-02-12T02:30:09.517Z,99.59
2017-02-12T02:31:20.192Z,98.74
2017-02-12T02:32:30.861Z,98.93
2017-02-12T02:33:41.525Z,99.12
2017-02-12T02:34:52.186Z,99.12
2017-02-12T02:36:02.854Z,99.21
2017-02-12T02:37:13.525Z,99.12
2017-02-12T02:38:24.189Z,99.5
2017-02-12T02:39:34.855Z,99.31
2017-02-12T02:40:45.129Z,98.74
2017-02-12T02:41:55.801Z,99.02
2017-02-12T02:43:06.502Z,99.02
2017-02-12T02:44:17.170Z,99.12
2017-02-12T02:45:27.939Z,99.4
2017-02-12T02:46:38.608Z,99.02
2017-02-12T02:47:48.877Z,99.31
2017-02-12T02:48:59.541Z,99.02
2017-02-12T02:50:09.805Z,98.74
2017-02-12T02:51:20.466Z,98.46
2017-02-12T02:52:31.126Z,98.36
2017-02-12T02:53:41.786Z,98.18
2017-02-12T02:54:52.457Z,98.55
2017-02-12T02:56:03.124Z,97.89
2017-02-12T02:57:13.789Z,98.08
2017-02-12T02:58:24.463Z,97.89
2017-02-12T02:59:34.732Z,97.52
2017-02-12T03:00:45.396Z,97.24
2017-02-12T03:01:56.064Z,97.42
2017-02-12T03:03:10.469Z,96.95
2017-02-12T03:04:20.741Z,97.33
2017-02-12T03:05:31.402Z,97.33
2017-02-12T03:06:42.061Z,97.24
2017-02-12T03:07:52.726Z,96.95
2017-02-12T03:09:03.389Z,96.95
2017-02-12T03:10:13.654Z,96.2
2017-02-12T03:11:24.315Z,96.2
2017-02-12T03:12:34.977Z,96.2
2017-02-12T03:13:45.650Z,96.48
2017-02-12T03:14:56.720Z,96.67
2017-02-12T03:16:07.000Z,96.86
2017-02-12T03:17:17.663Z,96.67
2017-02-12T03:18:28.329Z,97.05
2017-02-12T03:19:39.001Z,96.67
2017-02-12T03:20:49.966Z,96.95
2017-02-12T03:22:00.632Z,97.24
2017-02-12T03:23:11.297Z,97.38
2017-02-12T03:24:21.962Z,96.62
2017-02-12T03:25:32.623Z,95.87
2017-02-12T03:26:43.287Z,95.78
2017-02-12T03:27:53.601Z,95.12
2017-02-12T03:29:04.271Z,95.21
2017-02-12T03:30:14.137Z,95.16
2017-02-12T03:31:24.405Z,95.82
2017-02-12T03:32:35.076Z,95.87
2017-02-12T03:33:45.747Z,96.01
2017-02-12T03:34:56.413Z,95.64
2017-02-12T03:36:07.076Z,95.82
2017-02-12T03:37:17.339Z,96.01
2017-02-12T03:38:28.001Z,95.92
2017-02-12T03:39:38.263Z,96.01
2017-02-12T03:40:48.929Z,96.25
2017-02-12T03:41:59.595Z,96.2
2017-02-12T03:43:10.263Z,96.77
2017-02-12T03:44:20.934Z,96.67
2017-02-12T03:45:31.597Z,96.91
2017-02-12T03:46:42.255Z,97.09
2017-02-12T03:47:52.915Z,97.28
2017-02-12T03:49:03.588Z,96.72
2017-02-12T03:50:13.893Z,97.38
2017-02-12T03:51:24.559Z,97
2017-02-12T03:52:35.224Z,96.72
2017-02-12T03:53:45.883Z,96.44
2017-02-12T03:54:56.546Z,96.53
2017-02-12T03:56:07.226Z,96.15
2017-02-12T03:57:17.097Z,95.97
2017-02-12T03:58:27.759Z,95.31
2017-02-12T03:59:38.419Z,95.31
2017-02-12T04:00:49.081Z,95.68
2017-02-12T04:01:59.750Z,95.5
2017-02-12T04:03:10.015Z,95.45
2017-02-12T04:04:20.680Z,95.21
2017-02-12T04:05:31.352Z,95.5
2017-02-12T04:06:41.618Z,94.98
2017-02-12T04:07:52.285Z,95.35
2017-02-12T04:09:02.957Z,95.35
2017-02-12T04:10:13.219Z,95.35
2017-02-12T04:11:23.890Z,95.16
2017-02-12T04:12:34.558Z,94.88
2017-02-12T04:13:45.223Z,95.82
2017-02-12T04:14:55.888Z,96.2
2017-02-12T04:16:06.554Z,96.39
2017-02-12T04:17:16.423Z,96.48
2017-02-12T04:18:27.084Z,96.2
2017-02-12T04:19:37.747Z,96.2
2017-02-12T04:20:48.414Z,96.77
2017-02-12T04:21:59.081Z,96.2
2017-02-12T04:23:09.741Z,96.86
2017-02-12T04:24:20.401Z,96.86
2017-02-12T04:25:31.084Z,96.77
2017-02-12T04:26:41.354Z,96.67
2017-02-12T04:27:52.014Z,96.77
2017-02-12T04:29:02.693Z,96.77
2017-02-12T04:30:13.363Z,96.67
2017-02-12T04:31:24.038Z,96.77
2017-02-12T04:32:34.299Z,96.77
2017-02-12T04:33:44.958Z,96.77
2017-02-12T04:34:55.625Z,96.2
2017-02-12T04:36:05.888Z,96.86
2017-02-12T04:37:16.167Z,96.67
2017-02-12T04:38:26.833Z,96.67
2017-02-12T04:39:37.497Z,96.67
2017-02-12T04:40:48.168Z,96.67
2017-02-12T04:41:58.835Z,96.77
2017-02-12T04:43:09.503Z,96.67
2017-02-12T04:44:19.767Z,96.58
2017-02-12T04:45:30.033Z,96.48
2017-02-12T04:46:40.702Z,96.67
2017-02-12T04:47:51.364Z,96.67
2017-02-12T04:49:02.024Z,96.48
2017-02-12T04:50:12.686Z,96.58
2017-02-12T04:51:23.348Z,97.05
2017-02-12T04:52:34.014Z,96.86
2017-02-12T04:53:44.282Z,97.52
2017-02-12T04:54:54.945Z,97.8
2017-02-12T04:56:05.615Z,97.52
2017-02-12T04:57:15.491Z,97.89
2017-02-12T04:58:26.164Z,97.33
2017-02-12T04:59:36.828Z,97.05
2017-02-12T05:00:47.492Z,96.77
2017-02-12T05:01:58.185Z,96.58
2017-02-12T05:03:08.449Z,96.77
2017-02-12T05:04:18.719Z,96.67
2017-02-12T05:05:29.397Z,96.86
2017-02-12T05:06:40.059Z,96.67
2017-02-12T05:07:50.723Z,96.58
2017-02-12T05:09:01.379Z,96.2
2017-02-12T05:10:12.039Z,96.01
2017-02-12T05:11:22.307Z,95.82
2017-02-12T05:12:32.974Z,96.3
2017-02-12T05:13:43.639Z,96.58
2017-02-12T05:14:53.920Z,96.01
2017-02-12T05:16:04.615Z,97.24
2017-02-12T05:17:14.882Z,97.24
2017-02-12T05:18:25.154Z,96.77
2017-02-12T05:19:35.816Z,96.95
2017-02-12T05:20:46.476Z,97.99
2017-02-12T05:21:57.134Z,98.74
2017-02-12T05:23:07.805Z,99.02
2017-02-12T05:24:18.467Z,99.59
2017-02-12T05:25:29.127Z,99.68
2017-02-12T05:26:39.789Z,99.99
2017-02-12T05:27:50.476Z,99.87
2017-02-12T05:29:01.140Z,99.99
2017-02-12T05:30:11.809Z,99.99
2017-02-12T05:31:22.475Z,99.99
2017-02-12T05:32:33.146Z,99.97
2017-02-12T05:33:43.809Z,99.99
2017-02-12T05:34:54.502Z,99.87
2017-02-12T05:36:05.165Z,99.87
2017-02-12T05:37:15.460Z,99.99
2017-02-12T05:38:26.135Z,99.93
2017-02-12T05:39:36.803Z,99.99
2017-02-12T05:40:47.469Z,99.93
2017-02-12T05:41:58.138Z,99.83
2017-02-12T05:43:08.806Z,99.74
2017-02-12T05:44:19.470Z,99.17
2017-02-12T05:45:30.137Z,99.17
2017-02-12T05:46:40.801Z,99.08
2017-02-12T05:47:51.466Z,99.36
2017-02-12T05:49:02.129Z,99.17
2017-02-12T05:50:12.847Z,98.89
2017-02-12T05:51:23.515Z,98.6
2017-02-12T05:52:34.186Z,99.26
2017-02-12T05:53:44.852Z,99.26
2017-02-12T05:54:55.511Z,99.08
2017-02-12T05:56:05.770Z,98.51
2017-02-12T05:57:15.635Z,98.7
2017-02-12T05:58:26.296Z,98.79
2017-02-12T05:59:36.959Z,98.13
2017-02-12T06:00:47.616Z,98.23
2017-02-12T06:01:58.286Z,98.6
2017-02-12T06:03:08.550Z,98.6
2017-02-12T06:04:19.217Z,98.32
2017-02-12T06:05:29.878Z,98.32
2017-02-12T06:06:40.541Z,98.7
2017-02-12T06:07:51.208Z,98.23
2017-02-12T06:09:01.875Z,98.13
2017-02-12T06:10:12.537Z,97.75
2017-02-12T06:11:23.200Z,98.41
2017-02-12T06:12:33.859Z,98.32
2017-02-12T06:13:44.520Z,98.6
2017-02-12T06:14:55.184Z,98.6
2017-02-12T06:16:05.452Z,98.51
2017-02-12T06:17:15.721Z,98.04
2017-02-12T06:18:26.384Z,98.04
2017-02-12T06:19:37.047Z,98.04
2017-02-12T06:20:47.319Z,98.04
2017-02-12T06:21:58.018Z,98.7
2017-02-12T06:23:08.688Z,98.32
2017-02-12T06:24:19.345Z,98.51
2017-02-12T06:25:30.009Z,97.94
2017-02-12T06:26:40.674Z,98.6
2017-02-12T06:27:51.337Z,98.32
2017-02-12T06:29:02.000Z,97.28
2017-02-12T06:30:12.661Z,97.66
2017-02-12T06:31:23.327Z,97.8
2017-02-12T06:32:33.993Z,97.85
2017-02-12T06:33:44.682Z,98.04
2017-02-12T06:34:55.349Z,97.94
2017-02-12T06:36:05.617Z,97.85
2017-02-12T06:37:16.283Z,97.94
2017-02-12T06:38:26.950Z,97.85
2017-02-12T06:39:37.613Z,98.04
2017-02-12T06:40:48.276Z,98.6
2017-02-12T06:41:58.938Z,98.36
2017-02-12T06:43:09.601Z,98.55
2017-02-12T06:44:20.265Z,97.89
2017-02-12T06:45:30.931Z,97.05
2017-02-12T06:46:41.593Z,96.86
2017-02-12T06:47:52.262Z,96.01
2017-02-12T06:49:02.920Z,95.26
2017-02-12T06:50:13.182Z,95.26
2017-02-12T06:51:23.845Z,94.98
2017-02-12T06:52:34.510Z,94.88
2017-02-12T06:53:44.787Z,94.13
2017-02-12T06:54:55.462Z,94.88
2017-02-12T06:56:06.127Z,94.69
2017-02-12T06:57:16.794Z,94.98
2017-02-12T06:58:27.458Z,95.16
2017-02-12T06:59:38.122Z,96.11
2017-02-12T07:00:48.786Z,95.92
2017-02-12T07:01:59.452Z,96.67
2017-02-12T07:03:10.116Z,96.2
2017-02-12T07:04:20.375Z,96.95
2017-02-12T07:05:31.043Z,97.05
2017-02-12T07:06:41.703Z,97.05
2017-02-12T07:07:52.368Z,97.05
2017-02-12T07:09:03.030Z,97.33
2017-02-12T07:10:13.292Z,96.77
2017-02-12T07:11:23.555Z,97.14
2017-02-12T07:12:34.221Z,96.77
2017-02-12T07:13:44.492Z,96.77
2017-02-12T07:14:55.161Z,97.05
2017-02-12T07:16:05.829Z,96.95
2017-02-12T07:17:16.485Z,97.33
2017-02-12T07:18:27.151Z,97.61
2017-02-12T07:19:37.812Z,97.8
2017-02-12T07:20:48.474Z,97.71
2017-02-12T07:21:59.135Z,97.05
2017-02-12T07:23:09.799Z,96.67
2017-02-12T07:24:20.456Z,97.05
2017-02-12T07:25:31.127Z,97.05
2017-02-12T07:26:41.795Z,96.3
2017-02-12T07:27:52.469Z,96.39
2017-02-12T07:29:03.136Z,96.67
2017-02-12T07:30:13.802Z,96.77
2017-02-12T07:31:24.467Z,96.3
2017-02-12T07:32:35.126Z,96.01
2017-02-12T07:33:45.795Z,96.39
2017-02-12T07:34:56.459Z,96.77
2017-02-12T07:36:07.124Z,97.89
2017-02-12T07:37:17.388Z,97.71
2017-02-12T07:38:28.054Z,97.24
2017-02-12T07:39:38.715Z,97.71
2017-02-12T07:40:49.378Z,97.33
2017-02-12T07:42:00.037Z,97.33
2017-02-12T07:43:10.700Z,96.95
2017-02-12T07:44:20.959Z,97.14
2017-02-12T07:45:31.621Z,96.95
2017-02-12T07:46:42.285Z,96.95
2017-02-12T07:47:52.948Z,96.77
2017-02-12T07:49:03.612Z,96.95
2017-02-12T07:50:14.270Z,96.39
2017-02-12T07:51:24.928Z,95.82
2017-02-12T07:52:35.589Z,95.92
2017-02-12T07:53:46.250Z,95.73
2017-02-12T07:54:56.904Z,96.01
2017-02-12T07:56:07.563Z,95.92
2017-02-12T07:57:18.228Z,95.82
2017-02-12T07:58:28.891Z,95.92
2017-02-12T07:59:39.551Z,96.3
2017-02-12T08:00:50.220Z,95.82
2017-02-12T08:02:00.880Z,95.64
2017-02-12T08:03:11.537Z,96.01
2017-02-12T08:04:21.811Z,96.67
2017-02-12T08:05:32.475Z,96.39
2017-02-12T08:06:43.141Z,96.39
2017-02-12T08:07:53.805Z,96.2
2017-02-12T08:09:04.468Z,96.39
2017-02-12T08:10:15.148Z,96.77
2017-02-12T08:11:25.817Z,96.67
2017-02-12T08:12:36.476Z,96.58
2017-02-12T08:13:47.136Z,96.67
2017-02-12T08:14:57.802Z,96.11
2017-02-12T08:16:08.465Z,96.67
2017-02-12T08:17:19.170Z,96.01
2017-02-12T08:18:29.833Z,95.82
2017-02-12T08:19:40.498Z,96.11
2017-02-12T08:20:51.162Z,95.92
2017-02-12T08:22:01.832Z,95.92
2017-02-12T08:23:12.498Z,96.48
2017-02-12T08:24:23.177Z,95.73
2017-02-12T08:25:33.846Z,96.01
2017-02-12T08:26:44.506Z,95.45
2017-02-12T08:27:55.165Z,95.16
2017-02-12T08:29:05.826Z,94.69
2017-02-12T08:30:15.691Z,94.88
2017-02-12T08:31:26.360Z,93.94
2017-02-12T08:32:37.023Z,93.37
2017-02-12T08:33:47.679Z,93.75
2017-02-12T08:34:58.346Z,92.99
2017-02-12T08:36:08.616Z,93.13
2017-02-12T08:37:19.279Z,93.13
2017-02-12T08:38:29.946Z,93.32
2017-02-12T08:39:40.612Z,93.98
2017-02-12T08:40:51.274Z,94.27
2017-02-12T08:42:01.935Z,94.74
2017-02-12T08:43:12.201Z,94.88
2017-02-12T08:44:22.860Z,94.69
2017-02-12T08:45:33.126Z,94.69
2017-02-12T08:46:43.790Z,94.69
2017-02-12T08:47:54.445Z,93.94
2017-02-12T08:49:05.113Z,94.13
2017-02-12T08:50:15.822Z,94.13
2017-02-12T08:51:26.483Z,94.03
2017-02-12T08:52:37.142Z,94.13
2017-02-12T08:53:47.808Z,93.94
2017-02-12T08:54:58.473Z,94.88
2017-02-12T08:56:08.739Z,94.5
2017-02-12T08:57:19.006Z,94.22
2017-02-12T08:58:29.670Z,94.13
2017-02-12T08:59:40.334Z,94.13
2017-02-12T09:00:50.998Z,94.03
2017-02-12T09:02:01.656Z,94.22
2017-02-12T09:03:12.314Z,94.69
2017-02-12T09:04:22.583Z,94.31
2017-02-12T09:05:33.239Z,94.41
2017-02-12T09:06:43.895Z,93.47
2017-02-12T09:07:54.554Z,92.8
2017-02-12T09:09:05.223Z,92.24
2017-02-12T09:10:14.698Z,92.52
2017-02-12T09:11:24.968Z,92.9
2017-02-12T09:12:35.639Z,92.71
2017-02-12T09:13:46.301Z,92.52
2017-02-12T09:14:56.965Z,92.8
2017-02-12T09:16:07.629Z,92.43
2017-02-12T09:17:17.902Z,92.43
2017-02-12T09:18:28.596Z,92.43
2017-02-12T09:19:39.266Z,92.14
2017-02-12T09:20:49.927Z,92.33
2017-02-12T09:22:00.592Z,92.24
2017-02-12T09:23:11.253Z,92.05
2017-02-12T09:24:21.522Z,92.52
2017-02-12T09:25:32.188Z,92.33
2017-02-12T09:26:42.844Z,92.14
2017-02-12T09:27:53.124Z,92.24
2017-02-12T09:29:03.831Z,91.96
2017-02-12T09:30:14.099Z,92.05
2017-02-12T09:31:24.762Z,91.77
2017-02-12T09:32:35.428Z,91.02
2017-02-12T09:33:46.092Z,90.73
2017-02-12T09:34:56.760Z,91.02
2017-02-12T09:36:07.465Z,91.11
2017-02-12T09:37:17.337Z,90.36
2017-02-12T09:38:27.605Z,91.02
2017-02-12T09:39:38.268Z,90.36
2017-02-12T09:40:48.934Z,90.26
2017-02-12T09:41:59.600Z,90.08
2017-02-12T09:43:10.268Z,90.08
2017-02-12T09:44:20.530Z,89.51
2017-02-12T09:45:31.197Z,89.98
2017-02-12T09:46:41.864Z,89.79
2017-02-12T09:47:52.534Z,89.98
2017-02-12T09:49:03.196Z,89.79
2017-02-12T09:50:13.459Z,89.79
2017-02-12T09:51:24.121Z,90.17
2017-02-12T09:52:34.781Z,89.79
2017-02-12T09:53:45.443Z,89.7
2017-02-12T09:54:56.106Z,89.65
2017-02-12T09:56:06.766Z,89.46
2017-02-12T09:57:17.438Z,88.71
2017-02-12T09:58:28.101Z,89.08
2017-02-12T09:59:38.761Z,89.56
2017-02-12T10:00:49.416Z,89.18
2017-02-12T10:02:00.077Z,89.08
2017-02-12T10:03:10.739Z,88.71
2017-02-12T10:04:21.404Z,88.61
2017-02-12T10:05:32.063Z,87.86
2017-02-12T10:06:42.732Z,87.86
2017-02-12T10:07:53.397Z,87.48
2017-02-12T10:09:03.663Z,87.86
2017-02-12T10:10:14.328Z,87.86
2017-02-12T10:11:24.592Z,87.38
2017-02-12T10:12:35.277Z,87.57
2017-02-12T10:13:45.943Z,87.29
2017-02-12T10:14:56.604Z,86.82
2017-02-12T10:16:07.276Z,87.19
2017-02-12T10:17:17.543Z,87.29
2017-02-12T10:18:28.209Z,87.86
2017-02-12T10:19:38.880Z,87.76
2017-02-12T10:20:49.535Z,87.67
2017-02-12T10:22:00.203Z,87.76
2017-02-12T10:23:10.873Z,87.38
2017-02-12T10:24:21.539Z,87.1
2017-02-12T10:25:32.210Z,87.19
2017-02-12T10:26:42.874Z,86.35
2017-02-12T10:27:53.534Z,86.72
2017-02-12T10:29:04.204Z,86.25
2017-02-12T10:30:14.868Z,85.69
2017-02-12T10:31:25.530Z,86.07
2017-02-12T10:32:35.796Z,85.78
2017-02-12T10:33:46.457Z,85.78
2017-02-12T10:34:57.121Z,85.31
2017-02-12T10:36:07.780Z,85.69
2017-02-12T10:37:17.648Z,85.92
2017-02-12T10:38:28.317Z,84.69
2017-02-12T10:39:38.982Z,84.47
2017-02-12T10:40:49.649Z,83.99
2017-02-12T10:42:00.326Z,84.47
2017-02-12T10:43:10.630Z,84.65
2017-02-12T10:44:20.929Z,84.56
2017-02-12T10:45:31.635Z,84.94
2017-02-12T10:46:42.299Z,85.22
2017-02-12T10:47:52.967Z,85.13
2017-02-12T10:49:03.633Z,86.07
2017-02-12T10:50:13.900Z,86.25
2017-02-12T10:51:24.566Z,86.44
2017-02-12T10:52:35.232Z,86.54
2017-02-12T10:53:45.896Z,87.19
2017-02-12T10:54:56.562Z,86.72
2017-02-12T10:56:07.229Z,87.19
2017-02-12T10:57:17.502Z,87.29
2017-02-12T10:58:28.169Z,87.1
2017-02-12T10:59:38.991Z,86.54
2017-02-12T11:00:49.659Z,86.25
2017-02-12T11:02:00.329Z,86.16
2017-02-12T11:03:11.008Z,85.17
2017-02-12T11:04:21.321Z,84.13
2017-02-12T11:05:31.994Z,83.47
2017-02-12T11:06:42.693Z,83.47
2017-02-12T11:07:53.369Z,82.95
2017-02-12T11:09:03.688Z,82.57
2017-02-12T11:10:13.993Z,81.43
2017-02-12T11:11:24.265Z,81.48
2017-02-12T11:12:34.934Z,80.82
2017-02-12T11:13:45.611Z,80.63
2017-02-12T11:14:56.276Z,80.25
2017-02-12T11:16:06.945Z,80
2017-02-12T11:17:16.828Z,79.63
2017-02-12T11:18:27.497Z,78.87
2017-02-12T11:19:38.163Z,78.44
2017-02-12T11:20:48.833Z,78.16
2017-02-12T11:21:59.503Z,78.34
2017-02-12T11:23:09.776Z,78.16
2017-02-12T11:24:20.451Z,77.59
2017-02-12T11:25:31.125Z,77.12
2017-02-12T11:26:41.793Z,77.02
2017-02-12T11:27:52.465Z,77.78
2017-02-12T11:29:03.146Z,76.64
2017-02-12T11:30:13.419Z,77.21
2017-02-12T11:31:24.090Z,77.5
2017-02-12T11:32:34.763Z,76.74
2017-02-12T11:33:45.475Z,76.64
2017-02-12T11:34:56.149Z,76.55
2017-02-12T11:36:06.837Z,76.26
2017-02-12T11:37:17.505Z,76.36
2017-02-12T11:38:28.179Z,76.26
2017-02-12T11:39:38.857Z,75.79
2017-02-12T11:40:49.528Z,76.55
2017-02-12T11:42:00.196Z,76.17
2017-02-12T11:43:10.872Z,76.26
2017-02-12T11:44:21.150Z,75.98
2017-02-12T11:45:31.818Z,75.7
2017-02-12T11:46:42.498Z,75.6
2017-02-12T11:47:53.167Z,74.98
2017-02-12T11:49:03.847Z,75.17
2017-02-12T11:50:14.574Z,75.26
2017-02-12T11:51:25.255Z,75.02
2017-02-12T11:52:35.933Z,75.4
2017-02-12T11:53:46.612Z,74.49
2017-02-12T11:54:57.286Z,72.22
2017-02-12T11:56:08.008Z,70.14
2017-02-12T11:57:18.687Z,69.57
2017-02-12T11:58:29.359Z,71.52
2017-02-12T11:59:40.039Z,72.22
2017-02-12T12:00:50.730Z,72.34
2017-02-12T12:02:01.408Z,71.78
2017-02-12T12:03:11.692Z,71.44
2017-02-12T12:04:21.968Z,70.87
2017-02-12T12:05:32.665Z,68.5
2017-02-12T12:06:43.341Z,65.56
2017-02-12T12:07:54.018Z,65.25
2017-02-12T12:09:04.302Z,64.68
2017-02-12T12:10:14.592Z,65.4
2017-02-12T12:11:25.271Z,67.11
2017-02-12T12:12:35.946Z,68.24
2017-02-12T12:13:46.624Z,67.52
2017-02-12T12:14:57.311Z,67.71
2017-02-12T12:16:07.593Z,67.05
2017-02-12T12:17:18.274Z,66
2017-02-12T12:18:28.949Z,64.3
2017-02-12T12:19:39.628Z,64.55
2017-02-12T12:20:50.309Z,65.59
2017-02-12T12:22:00.985Z,65.31
2017-02-12T12:23:10.887Z,64.26
2017-02-12T12:24:21.164Z,63.89
2017-02-12T12:25:31.850Z,64.23
2017-02-12T12:26:42.535Z,65.37
2017-02-12T12:27:52.825Z,65.69
2017-02-12T12:29:03.507Z,65.94
2017-02-12T12:30:13.793Z,65.02
2017-02-12T12:31:24.500Z,64.52
2017-02-12T12:32:35.186Z,64.52
2017-02-12T12:33:45.860Z,65.28
2017-02-12T12:34:56.146Z,65.18
2017-02-12T12:36:06.839Z,64.9
2017-02-12T12:37:16.724Z,65.84
2017-02-12T12:38:27.405Z,66.13
2017-02-12T12:39:38.114Z,65.75
2017-02-12T12:40:48.791Z,66.66
2017-02-12T12:41:59.119Z,67.22
2017-02-12T12:43:09.401Z,67.41
2017-02-12T12:44:19.685Z,66.94
2017-02-12T12:45:30.358Z,67.89
2017-02-12T12:46:41.068Z,67.85
2017-02-12T12:47:51.755Z,68.42
2017-02-12T12:49:02.437Z,68.14
2017-02-12T12:50:13.119Z,68.23
2017-02-12T12:51:23.795Z,68.9
2017-02-12T12:52:34.073Z,69.84
2017-02-12T12:53:44.755Z,70.21
2017-02-12T12:54:55.435Z,70.21
2017-02-12T12:56:06.118Z,70.12
2017-02-12T12:57:16.436Z,71.03
2017-02-12T12:58:27.110Z,71.31
2017-02-12T12:59:37.784Z,71.16
2017-02-12T13:00:48.065Z,70.5
2017-02-12T13:01:58.737Z,70.21
2017-02-12T13:03:09.413Z,69.37
2017-02-12T13:04:20.090Z,69.18
2017-02-12T13:05:30.765Z,68.23
2017-02-12T13:06:41.439Z,68.52
2017-02-12T13:07:52.113Z,68.99
2017-02-12T13:09:02.795Z,69.18
2017-02-12T13:10:13.470Z,69.37
2017-02-12T13:11:23.349Z,69.84
2017-02-12T13:12:34.023Z,69.56
2017-02-12T13:13:44.698Z,69.65
2017-02-12T13:14:55.369Z,70.12
2017-02-12T13:16:06.085Z,69.93
2017-02-12T13:17:16.757Z,69.74
2017-02-12T13:18:27.434Z,70.12
2017-02-12T13:19:38.123Z,69.56
2017-02-12T13:20:48.793Z,69.46
2017-02-12T13:21:59.471Z,70.12
2017-02-12T13:23:09.754Z,70.21
2017-02-12T13:24:20.430Z,69.56
2017-02-12T13:25:31.099Z,69.56
2017-02-12T13:26:41.772Z,70.12
2017-02-12T13:27:52.442Z,70.03
2017-02-12T13:29:03.116Z,70.12
2017-02-12T13:30:13.788Z,70.03
2017-02-12T13:31:24.460Z,70.03
2017-02-12T13:32:35.133Z,69.46
2017-02-12T13:33:45.020Z,70.21
2017-02-12T13:34:55.686Z,70.03
2017-02-12T13:36:05.961Z,70.12
2017-02-12T13:37:16.640Z,70.97
2017-02-12T13:38:26.918Z,70.5
2017-02-12T13:39:37.587Z,70.78
2017-02-12T13:40:48.309Z,70.69
2017-02-12T13:41:58.983Z,71.35
2017-02-12T13:43:09.656Z,71.26
2017-02-12T13:44:19.930Z,71.07
2017-02-12T13:45:30.204Z,71.35
2017-02-12T13:46:40.913Z,71.07
2017-02-12T13:47:51.587Z,71.16
2017-02-12T13:49:02.296Z,70.78
2017-02-12T13:50:12.968Z,70.5
2017-02-12T13:51:23.637Z,70.88
2017-02-12T13:52:34.308Z,70.97
2017-02-12T13:53:44.976Z,70.4
2017-02-12T13:54:55.650Z,70.69
2017-02-12T13:56:06.324Z,70.65
2017-02-12T13:57:16.624Z,70.56
2017-02-12T13:58:26.904Z,70.94
2017-02-12T13:59:37.573Z,71.6
2017-02-12T14:00:48.245Z,71.6
2017-02-12T14:01:58.913Z,72.07
2017-02-12T14:03:09.591Z,72.17
2017-02-12T14:04:19.860Z,73.11
2017-02-12T14:05:30.585Z,73.39
2017-02-12T14:06:41.278Z,73.3
2017-02-12T14:07:51.950Z,73.49
2017-02-12T14:09:02.620Z,73.21
2017-02-12T14:10:13.293Z,73.39
2017-02-12T14:11:23.568Z,73.02
2017-02-12T14:12:34.241Z,72.51
2017-02-12T14:13:44.917Z,72.88
2017-02-12T14:14:55.588Z,72.98
2017-02-12T14:16:05.859Z,73.07
2017-02-12T14:17:16.130Z,73.55
2017-02-12T14:18:26.804Z,73.45
2017-02-12T14:19:37.080Z,72.88
2017-02-12T14:20:47.753Z,73.07
2017-02-12T14:21:58.426Z,73.07
2017-02-12T14:23:08.305Z,73.07
2017-02-12T14:24:18.969Z,73.17
2017-02-12T14:25:29.637Z,74.11
2017-02-12T14:26:39.919Z,73.83
2017-02-12T14:27:50.591Z,73.93
2017-02-12T14:29:01.264Z,73.93
2017-02-12T14:30:11.964Z,73.83
2017-02-12T14:31:22.235Z,74.49
2017-02-12T14:32:32.512Z,74.68
2017-02-12T14:33:43.183Z,75.05
2017-02-12T14:34:53.891Z,75.53
2017-02-12T14:36:04.563Z,76.09
2017-02-12T14:37:14.431Z,76.25
2017-02-12T14:38:25.096Z,77.04
2017-02-12T14:39:35.805Z,76.9
2017-02-12T14:40:46.484Z,77.47
2017-02-12T14:41:56.771Z,77.75
2017-02-12T14:43:07.041Z,78.04
2017-02-12T14:44:17.718Z,77.98
2017-02-12T14:45:28.389Z,77.56
2017-02-12T14:46:39.054Z,78.08
2017-02-12T14:47:49.764Z,77.98
2017-02-12T14:49:00.746Z,77.51
2017-02-12T14:50:11.013Z,77.04
2017-02-12T14:51:21.285Z,76.85
2017-02-12T14:52:31.557Z,76.57
2017-02-12T14:53:42.226Z,76.47
2017-02-12T14:54:52.892Z,76.57
2017-02-12T14:56:03.560Z,77.13
2017-02-12T14:57:14.230Z,77.8
2017-02-12T14:58:24.901Z,77.7
2017-02-12T14:59:35.573Z,78.36
2017-02-12T15:00:46.241Z,77.85
2017-02-12T15:01:56.908Z,78.04
2017-02-12T15:03:07.576Z,78.08
2017-02-12T15:04:17.841Z,78.42
2017-02-12T15:05:28.504Z,79.49
2017-02-12T15:06:39.169Z,79.27
2017-02-12T15:07:49.832Z,79.64
2017-02-12T15:09:00.503Z,79.46
2017-02-12T15:10:10.778Z,79.74
2017-02-12T15:11:21.047Z,79.36
2017-02-12T15:12:31.716Z,79.83